Time;durP1;ratioP1;P1;durP2;ratioP2;P2;SDS_P1;SDS_P2;PMS_P1;PMS_P2;Temp;Humidity;BMP_temperature;BMP_pressure;BME280_temperature;BME280_humidity;BME280_pressure;Samples;Min_cycle;Max_cycle;Signal;HPM_P1;HPM_P2
2022/08/29 00:01:11;;;;;;;;;;;18.10;99.90;;;;;;5111878;28;19923;-56
2022/08/29 00:03:40;;;;;;;;;;;18.10;99.90;;;;;;5111234;28;20337;-57
2022/08/29 00:06:09;;;;;;;;;;;18.10;99.90;;;;;;5110494;28;19928;-56
2022/08/29 00:08:38;;;;;;;;;;;18.10;99.90;;;;;;5098293;28;19935;-56
2022/08/29 00:11:06;;;;;;;;;;;18.10;99.90;;;;;;5091305;28;19924;-57
2022/08/29 00:13:34;;;;;;;;;;;18.10;99.90;;;;;;5096806;28;19924;-57
2022/08/29 00:16:02;;;;;;;;;;;18.00;99.90;;;;;;5088898;28;19931;-56
2022/08/29 00:18:29;;;;;;;;;;;18.00;99.90;;;;;;5072902;28;19936;-57
2022/08/29 00:20:57;;;;;;;;;;;18.00;99.90;;;;;;5091036;28;19931;-57
2022/08/29 00:23:24;;;;;;;;;;;18.00;99.90;;;;;;5089388;28;19928;-57
2022/08/29 00:25:52;;;;;;;;;;;18.00;99.90;;;;;;5090821;28;20402;-56
2022/08/29 00:28:19;;;;;;;;;;;17.90;99.90;;;;;;5096735;28;19931;-57
2022/08/29 00:30:47;;;;;;;;;;;17.90;99.90;;;;;;5110113;28;19923;-57
2022/08/29 00:33:15;;;;;;;;;;;17.90;99.90;;;;;;5109682;28;20255;-57
2022/08/29 00:35:44;;;;;;;;;;;17.90;99.90;;;;;;5111216;28;20375;-57
2022/08/29 00:38:13;;;;;;;;;;;17.90;99.90;;;;;;5089906;28;20376;-57
2022/08/29 00:40:49;;;;;;;;;;;17.80;99.90;;;;;;5070373;28;19924;-57
2022/08/29 00:43:20;;;;;;;;;;;17.80;99.90;;;;;;5077632;28;19928;-57
2022/08/29 00:45:55;;;;;;;;;;;17.80;99.90;;;;;;5085380;28;20397;-57
2022/08/29 00:48:23;;;;;;;;;;;17.80;99.90;;;;;;5090290;28;20291;-57
2022/08/29 00:50:52;;;;;;;;;;;17.80;99.90;;;;;;5084663;28;19925;-57
2022/08/29 00:53:25;;;;;;;;;;;17.70;99.90;;;;;;5076635;28;20304;-57
2022/08/29 00:55:53;;;;;;;;;;;17.70;99.90;;;;;;5109284;28;19927;-57
2022/08/29 00:58:26;;;;;;;;;;;17.70;99.90;;;;;;5094540;28;20294;-57
2022/08/29 01:00:54;;;;;;;;;;;17.70;99.90;;;;;;5101298;28;19923;-57
2022/08/29 01:03:22;;;;;;;;;;;17.70;99.90;;;;;;5080049;28;19931;-57
2022/08/29 01:05:50;;;;;;;;;;;17.70;99.90;;;;;;5086827;28;19951;-57
2022/08/29 01:08:17;;;;;;;;;;;17.70;99.90;;;;;;5092678;28;19924;-57
2022/08/29 01:13:35;;;;;;;;;;;17.60;99.90;;;;;;5097611;27;19924;-57
2022/08/29 01:16:03;;;;;;;;;;;17.60;99.90;;;;;;5086623;28;19933;-57
2022/08/29 01:18:31;;;;;;;;;;;17.60;99.90;;;;;;5078735;28;19932;-57
2022/08/29 01:20:58;;;;;;;;;;;18.20;99.90;;;;;;5081227;28;19936;-56
2022/08/29 01:23:52;;;;;;;;;;;17.50;99.90;;;;;;5092998;28;19935;-56
2022/08/29 01:26:21;;;;;;;;;;;17.50;99.90;;;;;;5080486;28;19925;-57
2022/08/29 01:28:50;;;;;;;;;;;17.50;99.90;;;;;;5083875;28;20386;-57
2022/08/29 01:31:21;;;;;;;;;;;17.50;99.90;;;;;;5087866;28;19928;-56
2022/08/29 01:34:09;;;;;;;;;;;17.40;99.90;;;;;;5083163;28;20536;-57
2022/08/29 01:36:40;;;;;;;;;;;17.40;99.90;;;;;;5086190;28;19935;-56
2022/08/29 01:39:07;;;;;;;;;;;17.40;99.90;;;;;;5103806;28;19931;-57
2022/08/29 01:41:35;;;;;;;;;;;17.40;99.90;;;;;;5110181;28;19931;-57
2022/08/29 01:44:07;;;;;;;;;;;17.40;99.90;;;;;;5093588;28;20283;-57
2022/08/29 01:46:35;;;;;;;;;;;17.40;99.90;;;;;;5089145;28;20381;-57
2022/08/29 01:49:03;;;;;;;;;;;17.30;99.90;;;;;;5080333;28;20337;-57
2022/08/29 01:51:31;;;;;;;;;;;17.30;99.90;;;;;;5071247;28;19928;-57
2022/08/29 01:53:58;;;;;;;;;;;17.30;99.90;;;;;;5079228;28;19924;-57
2022/08/29 01:56:27;;;;;;;;;;;17.20;99.90;;;;;;5089395;28;19931;-57
2022/08/29 01:58:55;;;;;;;;;;;17.20;99.90;;;;;;5092303;28;20550;-57
2022/08/29 02:01:24;;;;;;;;;;;17.20;99.90;;;;;;5109319;28;19924;-57
2022/08/29 02:03:54;;;;;;;;;;;17.10;99.90;;;;;;5086346;28;20171;-57
2022/08/29 02:06:21;;;;;;;;;;;17.20;99.90;;;;;;5068880;28;19924;-56
2022/08/29 02:08:48;;;;;;;;;;;17.10;99.90;;;;;;5073650;28;19923;-57
2022/08/29 02:11:16;;;;;;;;;;;17.10;99.90;;;;;;5109547;28;19924;-57
2022/08/29 02:13:46;;;;;;;;;;;17.10;99.90;;;;;;5087518;28;20074;-57
2022/08/29 02:16:14;;;;;;;;;;;17.00;99.90;;;;;;5074444;28;19928;-57
2022/08/29 02:18:42;;;;;;;;;;;17.00;99.90;;;;;;5079094;28;19931;-57
2022/08/29 02:21:10;;;;;;;;;;;17.00;99.90;;;;;;5077162;28;20307;-57
2022/08/29 02:23:38;;;;;;;;;;;17.00;99.90;;;;;;5071891;28;19924;-57
2022/08/29 02:26:06;;;;;;;;;;;16.90;99.90;;;;;;5071972;28;19925;-57
2022/08/29 02:28:34;;;;;;;;;;;16.90;99.90;;;;;;5080794;28;20401;-57
2022/08/29 02:31:03;;;;;;;;;;;16.90;99.90;;;;;;5112209;28;19931;-57
2022/08/29 02:33:31;;;;;;;;;;;16.80;99.90;;;;;;5093119;28;20417;-57
2022/08/29 02:35:58;;;;;;;;;;;16.80;99.90;;;;;;5082247;28;20379;-57
2022/08/29 02:38:28;;;;;;;;;;;16.80;99.90;;;;;;5074229;28;19999;-57
2022/08/29 02:40:55;;;;;;;;;;;16.80;99.90;;;;;;5078197;28;19952;-57
2022/08/29 02:43:23;;;;;;;;;;;16.80;99.90;;;;;;5077877;28;19932;-57
2022/08/29 02:45:51;;;;;;;;;;;16.80;99.90;;;;;;5078205;28;19929;-57
2022/08/29 02:48:18;;;;;;;;;;;16.80;99.90;;;;;;5081000;28;20383;-57
2022/08/29 02:50:47;;;;;;;;;;;16.80;99.90;;;;;;5078130;28;19925;-57
2022/08/29 02:53:15;;;;;;;;;;;16.80;99.90;;;;;;5078132;28;19950;-57
2022/08/29 02:55:43;;;;;;;;;;;16.80;99.90;;;;;;5078002;28;19925;-57
2022/08/29 02:58:10;;;;;;;;;;;16.80;99.90;;;;;;5081313;28;19928;-57
2022/08/29 03:00:37;;;;;;;;;;;16.80;99.90;;;;;;5098339;28;19924;-57
2022/08/29 03:03:05;;;;;;;;;;;16.80;99.90;;;;;;5077865;28;19932;-57
2022/08/29 03:05:33;;;;;;;;;;;16.80;99.90;;;;;;5078136;28;19924;-57
2022/08/29 03:08:02;;;;;;;;;;;16.80;99.90;;;;;;5076595;28;19935;-57
2022/08/29 03:10:29;;;;;;;;;;;16.80;99.90;;;;;;5078071;28;19924;-57
2022/08/29 03:12:56;;;;;;;;;;;16.80;99.90;;;;;;5078035;28;19925;-57
2022/08/29 03:15:24;;;;;;;;;;;16.80;99.90;;;;;;5080108;28;20054;-57
2022/08/29 03:17:51;;;;;;;;;;;16.80;99.90;;;;;;5077775;28;19928;-57
2022/08/29 03:20:20;;;;;;;;;;;16.80;99.90;;;;;;5076642;28;20308;-57
2022/08/29 03:22:50;;;;;;;;;;;16.80;99.90;;;;;;5079706;28;20142;-57
2022/08/29 03:25:17;;;;;;;;;;;16.80;99.90;;;;;;5077427;28;19925;-57
2022/08/29 03:27:45;;;;;;;;;;;16.80;99.90;;;;;;5097896;28;20372;-57
2022/08/29 03:30:13;;;;;;;;;;;16.80;99.90;;;;;;5116694;28;19924;-57
2022/08/29 03:32:41;;;;;;;;;;;16.80;99.90;;;;;;5114419;27;20394;-57
2022/08/29 03:35:10;;;;;;;;;;;16.80;99.90;;;;;;5097214;28;19931;-56
2022/08/29 03:37:37;;;;;;;;;;;16.80;99.90;;;;;;5095379;28;20537;-57
2022/08/29 03:40:06;;;;;;;;;;;16.80;99.90;;;;;;5095903;28;19939;-57
2022/08/29 03:42:34;;;;;;;;;;;16.80;99.90;;;;;;5077826;28;19924;-56
2022/08/29 03:45:03;;;;;;;;;;;16.80;99.90;;;;;;5077559;28;20287;-56
2022/08/29 03:47:30;;;;;;;;;;;16.80;99.90;;;;;;5090567;28;19928;-56
2022/08/29 03:49:57;;;;;;;;;;;16.80;99.90;;;;;;5074947;28;19928;-57
2022/08/29 03:52:25;;;;;;;;;;;16.80;99.90;;;;;;5072140;28;19924;-57
2022/08/29 03:54:52;;;;;;;;;;;16.70;99.90;;;;;;5074682;28;19932;-56
2022/08/29 03:57:20;;;;;;;;;;;16.70;99.90;;;;;;5077039;28;19925;-56
2022/08/29 03:59:47;;;;;;;;;;;16.80;99.90;;;;;;5104831;28;19924;-56
2022/08/29 04:02:20;;;;;;;;;;;16.80;99.90;;;;;;5074580;28;20387;-56
2022/08/29 04:05:05;;;;;;;;;;;16.70;99.90;;;;;;5074376;28;19932;-56
2022/08/29 04:07:38;;;;;;;;;;;16.70;99.90;;;;;;5074187;28;19925;-56
2022/08/29 04:10:07;;;;;;;;;;;16.70;99.90;;;;;;5074406;28;19925;-57
2022/08/29 04:12:35;;;;;;;;;;;16.70;99.90;;;;;;5072887;28;20383;-56
2022/08/29 04:15:04;;;;;;;;;;;16.70;99.90;;;;;;5074136;28;19931;-57
2022/08/29 04:17:32;;;;;;;;;;;16.80;99.90;;;;;;5072949;28;19924;-57
2022/08/29 04:19:59;;;;;;;;;;;16.80;99.90;;;;;;5073785;28;19924;-57
2022/08/29 04:22:27;;;;;;;;;;;16.70;99.90;;;;;;5088255;28;19931;-56
2022/08/29 04:24:54;;;;;;;;;;;16.80;99.90;;;;;;5073999;28;19924;-57
2022/08/29 04:27:22;;;;;;;;;;;16.80;99.90;;;;;;5073909;28;20436;-57
2022/08/29 04:29:49;;;;;;;;;;;16.70;99.90;;;;;;5108337;28;19924;-56
2022/08/29 04:32:16;;;;;;;;;;;16.80;99.90;;;;;;5085513;28;20399;-57
2022/08/29 04:34:44;;;;;;;;;;;16.70;99.90;;;;;;5073622;28;19947;-56
2022/08/29 04:37:11;;;;;;;;;;;16.70;99.90;;;;;;5072534;28;19931;-57
2022/08/29 04:39:39;;;;;;;;;;;16.80;99.90;;;;;;5075317;28;20134;-57
2022/08/29 04:42:06;;;;;;;;;;;16.70;99.90;;;;;;5087492;28;19929;-57
2022/08/29 04:44:34;;;;;;;;;;;16.70;99.90;;;;;;5073519;28;19931;-57
2022/08/29 04:47:01;;;;;;;;;;;16.70;99.90;;;;;;5070914;28;20296;-58
2022/08/29 04:49:29;;;;;;;;;;;16.70;99.90;;;;;;5067344;28;19931;-57
2022/08/29 04:51:56;;;;;;;;;;;16.70;99.90;;;;;;5069351;28;20003;-57
2022/08/29 04:54:24;;;;;;;;;;;16.70;99.90;;;;;;5069763;28;20403;-57
2022/08/29 04:56:52;;;;;;;;;;;16.70;99.90;;;;;;5070070;28;19929;-57
2022/08/29 04:59:23;;;;;;;;;;;16.70;99.90;;;;;;5097538;28;19924;-57
2022/08/29 05:01:53;;;;;;;;;;;16.70;99.90;;;;;;5101250;28;20499;-57
2022/08/29 05:04:21;;;;;;;;;;;16.70;99.90;;;;;;5084475;28;19931;-57
2022/08/29 05:06:48;;;;;;;;;;;16.70;99.90;;;;;;5081771;28;19935;-57
2022/08/29 05:09:16;;;;;;;;;;;16.70;99.90;;;;;;5107735;28;19931;-57
2022/08/29 05:11:43;;;;;;;;;;;16.70;99.90;;;;;;5078682;28;19924;-57
2022/08/29 05:14:10;;;;;;;;;;;16.70;99.90;;;;;;5103376;28;19939;-57
2022/08/29 05:16:38;;;;;;;;;;;16.70;99.90;;;;;;5108172;28;19924;-57
2022/08/29 05:19:06;;;;;;;;;;;16.70;99.90;;;;;;5086610;28;20260;-57
2022/08/29 05:21:36;;;;;;;;;;;16.60;99.90;;;;;;5083968;28;19928;-57
2022/08/29 05:24:05;;;;;;;;;;;16.60;99.90;;;;;;5085936;28;20367;-57
2022/08/29 05:26:35;;;;;;;;;;;16.60;99.90;;;;;;5086745;28;20425;-57
2022/08/29 05:29:05;;;;;;;;;;;16.60;99.90;;;;;;5095088;28;19962;-57
2022/08/29 05:31:36;;;;;;;;;;;16.60;99.90;;;;;;5108042;28;20393;-57
2022/08/29 05:34:04;;;;;;;;;;;16.60;99.90;;;;;;5075411;28;19924;-57
2022/08/29 05:36:52;;;;;;;;;;;16.60;99.90;;;;;;5071167;28;19924;-57
2022/08/29 05:39:19;;;;;;;;;;;16.60;99.90;;;;;;5089315;28;20455;-57
2022/08/29 05:41:46;;;;;;;;;;;16.60;99.90;;;;;;5071939;28;20307;-57
2022/08/29 05:44:14;;;;;;;;;;;16.60;99.90;;;;;;5092724;28;19925;-57
2022/08/29 05:46:42;;;;;;;;;;;16.60;99.90;;;;;;5089322;28;19956;-57
2022/08/29 05:49:09;;;;;;;;;;;16.60;99.90;;;;;;5089103;28;19928;-57
2022/08/29 05:51:37;;;;;;;;;;;16.60;99.90;;;;;;5081229;28;19932;-57
2022/08/29 05:54:06;;;;;;;;;;;16.60;99.90;;;;;;5083031;28;19924;-57
2022/08/29 05:56:34;;;;;;;;;;;16.60;99.90;;;;;;5079804;28;20393;-57
2022/08/29 05:59:01;;;;;;;;;;;16.60;99.90;;;;;;5094323;28;19924;-57
2022/08/29 06:01:31;;;;;;;;;;;16.60;99.90;;;;;;5092099;28;19931;-57
2022/08/29 06:03:59;;;;;;;;;;;16.60;99.90;;;;;;5084025;28;19935;-56
2022/08/29 06:06:28;;;;;;;;;;;16.60;99.90;;;;;;5069706;28;19924;-57
2022/08/29 06:08:56;;;;;;;;;;;16.60;99.90;;;;;;5081602;28;19931;-57
2022/08/29 06:11:24;;;;;;;;;;;16.60;99.90;;;;;;5072346;28;20391;-57
2022/08/29 06:13:52;;;;;;;;;;;16.60;99.90;;;;;;5092337;28;19923;-57
2022/08/29 06:16:20;;;;;;;;;;;16.60;99.90;;;;;;5108406;28;19923;-58
2022/08/29 06:18:48;;;;;;;;;;;16.60;99.90;;;;;;5089093;28;20375;-57
2022/08/29 06:21:16;;;;;;;;;;;16.60;99.90;;;;;;5076608;28;19925;-58
2022/08/29 06:23:44;;;;;;;;;;;16.60;99.90;;;;;;5080633;28;19931;-57
2022/08/29 06:26:12;;;;;;;;;;;16.70;99.90;;;;;;5086544;28;19935;-57
2022/08/29 06:28:42;;;;;;;;;;;16.70;99.90;;;;;;5094444;28;19924;-57
2022/08/29 06:31:14;;;;;;;;;;;16.70;99.90;;;;;;5092121;28;19935;-57
2022/08/29 06:33:42;;;;;;;;;;;16.70;99.90;;;;;;5072496;28;19932;-62
2022/08/29 06:36:09;;;;;;;;;;;16.70;99.90;;;;;;5070265;28;19936;-57
2022/08/29 06:38:37;;;;;;;;;;;16.70;99.90;;;;;;5081951;28;19924;-56
2022/08/29 06:41:06;;;;;;;;;;;16.70;99.90;;;;;;5088633;28;19931;-57
2022/08/29 06:43:33;;;;;;;;;;;16.70;99.90;;;;;;5088319;28;19928;-56
2022/08/29 06:46:01;;;;;;;;;;;16.80;99.90;;;;;;5088311;28;19931;-57
2022/08/29 06:48:29;;;;;;;;;;;16.70;99.90;;;;;;5088344;28;19924;-57
2022/08/29 06:50:59;;;;;;;;;;;16.80;99.90;;;;;;5088052;28;20393;-56
2022/08/29 06:53:27;;;;;;;;;;;16.80;99.90;;;;;;5088325;28;19924;-57
2022/08/29 06:56:02;;;;;;;;;;;16.80;99.90;;;;;;5088867;28;20520;-57
2022/08/29 06:58:31;;;;;;;;;;;16.80;99.90;;;;;;5091581;28;19924;-57
2022/08/29 07:01:04;;;;;;;;;;;16.90;99.90;;;;;;5107914;28;19931;-57
2022/08/29 07:03:31;;;;;;;;;;;16.90;99.90;;;;;;5091102;28;19958;-57
2022/08/29 07:05:59;;;;;;;;;;;17.00;99.90;;;;;;5085605;28;19924;-56
2022/08/29 07:08:27;;;;;;;;;;;17.00;99.90;;;;;;5100090;28;20299;-56
2022/08/29 07:10:54;;;;;;;;;;;17.00;99.90;;;;;;5108833;28;19923;-56
2022/08/29 07:13:22;;;;;;;;;;;17.10;99.90;;;;;;5094309;28;20276;-57
2022/08/29 07:15:50;;;;;;;;;;;17.00;99.90;;;;;;5086822;28;19924;-57
2022/08/29 07:18:17;;;;;;;;;;;17.10;99.90;;;;;;5087949;28;20420;-57
2022/08/29 07:20:45;;;;;;;;;;;17.20;99.90;;;;;;5088159;28;19924;-57
2022/08/29 07:23:12;;;;;;;;;;;17.20;99.90;;;;;;5087878;28;19935;-57
2022/08/29 07:25:39;;;;;;;;;;;17.10;99.90;;;;;;5076456;28;19925;-57
2022/08/29 07:28:07;;;;;;;;;;;17.20;99.90;;;;;;5075987;28;20557;-57
2022/08/29 07:30:36;;;;;;;;;;;17.20;99.90;;;;;;5091956;28;19924;-57
2022/08/29 07:33:04;;;;;;;;;;;17.20;99.90;;;;;;5090131;28;19931;-57
2022/08/29 07:35:32;;;;;;;;;;;17.20;99.90;;;;;;5076014;28;19947;-57
2022/08/29 07:38:02;;;;;;;;;;;17.30;99.90;;;;;;5079652;28;19931;-57
2022/08/29 07:40:30;;;;;;;;;;;17.30;99.90;;;;;;5091573;28;19932;-57
2022/08/29 07:42:58;;;;;;;;;;;17.30;99.90;;;;;;5078910;28;19924;-57
2022/08/29 07:45:25;;;;;;;;;;;17.40;99.90;;;;;;5091399;28;19924;-57
2022/08/29 07:47:53;;;;;;;;;;;17.40;99.90;;;;;;5078527;28;19924;-56
2022/08/29 07:50:20;;;;;;;;;;;17.30;99.90;;;;;;5091416;28;19924;-57
2022/08/29 07:52:48;;;;;;;;;;;17.30;99.90;;;;;;5091326;28;19943;-57
2022/08/29 07:55:15;;;;;;;;;;;17.40;99.90;;;;;;5077463;28;19931;-57
2022/08/29 07:57:45;;;;;;;;;;;17.40;99.90;;;;;;5064615;28;19931;-57
2022/08/29 08:00:13;;;;;;;;;;;17.40;99.90;;;;;;5108029;28;19923;-57
2022/08/29 08:02:40;;;;;;;;;;;17.50;99.90;;;;;;5105353;28;19924;-57
2022/08/29 08:05:08;;;;;;;;;;;17.50;99.90;;;;;;5084463;28;19924;-57
2022/08/29 08:07:35;;;;;;;;;;;17.50;99.90;;;;;;5095038;28;19924;-57
2022/08/29 08:10:07;;;;;;;;;;;17.50;99.90;;;;;;5084856;28;20379;-57
2022/08/29 08:12:34;;;;;;;;;;;17.50;99.90;;;;;;5079283;28;19924;-57
2022/08/29 08:15:02;;;;;;;;;;;17.60;99.90;;;;;;5072981;28;20295;-57
2022/08/29 08:17:29;;;;;;;;;;;17.60;99.90;;;;;;5081975;28;19935;-57
2022/08/29 08:19:57;;;;;;;;;;;17.60;99.90;;;;;;5084771;28;20653;-57
2022/08/29 08:22:25;;;;;;;;;;;17.70;99.90;;;;;;5082593;28;19935;-57
2022/08/29 08:24:53;;;;;;;;;;;17.80;99.90;;;;;;5075454;28;19928;-57
2022/08/29 08:27:20;;;;;;;;;;;17.80;99.90;;;;;;5091033;28;20478;-57
2022/08/29 08:29:47;;;;;;;;;;;17.80;99.90;;;;;;5090290;28;19935;-58
2022/08/29 08:32:15;;;;;;;;;;;17.90;99.90;;;;;;5089642;28;19924;-57
2022/08/29 08:34:43;;;;;;;;;;;17.90;99.90;;;;;;5068630;28;20391;-56
2022/08/29 08:37:10;;;;;;;;;;;17.90;99.90;;;;;;5071531;28;19925;-56
2022/08/29 08:39:45;;;;;;;;;;;17.90;99.90;;;;;;5076909;28;19928;-57
2022/08/29 08:42:19;;;;;;;;;;;17.90;99.90;;;;;;5069264;28;20623;-57
2022/08/29 08:45:04;;;;;;;;;;;17.80;99.90;;;;;;5086442;28;19924;-56
2022/08/29 08:47:40;;;;;;;;;;;17.80;99.90;;;;;;5090698;28;19931;-57
2022/08/29 08:50:17;;;;;;;;;;;17.80;99.90;;;;;;5084122;28;19928;-57
2022/08/29 08:52:45;;;;;;;;;;;17.80;99.90;;;;;;5073064;28;19924;-57
2022/08/29 08:55:18;;;;;;;;;;;17.90;99.90;;;;;;5070059;28;19925;-57
2022/08/29 08:57:51;;;;;;;;;;;17.90;99.90;;;;;;5077041;28;19936;-57
2022/08/29 09:00:18;;;;;;;;;;;17.90;99.90;;;;;;5108454;28;19923;-56
2022/08/29 09:02:58;;;;;;;;;;;18.00;99.90;;;;;;5103323;28;19924;-57
2022/08/29 09:05:35;;;;;;;;;;;18.10;99.90;;;;;;5088521;28;19924;-57
2022/08/29 09:08:23;;;;;;;;;;;18.30;99.90;;;;;;5078767;28;19925;-57
2022/08/29 09:10:56;;;;;;;;;;;18.40;99.90;;;;;;5090200;28;19924;-57
2022/08/29 09:13:28;;;;;;;;;;;18.60;99.90;;;;;;5088727;28;19924;-57
2022/08/29 09:15:57;;;;;;;;;;;18.70;99.90;;;;;;5088607;28;19924;-57
2022/08/29 09:18:31;;;;;;;;;;;18.80;99.90;;;;;;5089937;28;19957;-57
2022/08/29 09:21:03;;;;;;;;;;;18.90;99.90;;;;;;5084425;28;19931;-57
2022/08/29 09:23:53;;;;;;;;;;;19.00;99.90;;;;;;5085281;28;20399;-57
2022/08/29 09:26:22;;;;;;;;;;;19.10;99.90;;;;;;5089943;28;19924;-57
2022/08/29 09:28:49;;;;;;;;;;;19.20;99.90;;;;;;5096625;28;19931;-57
2022/08/29 09:31:19;;;;;;;;;;;19.30;99.40;;;;;;5109916;28;20291;-57
2022/08/29 09:33:57;;;;;;;;;;;19.40;99.40;;;;;;5094545;28;20401;-57
2022/08/29 09:36:38;;;;;;;;;;;19.50;99.20;;;;;;5088079;28;19947;-57
2022/08/29 09:39:17;;;;;;;;;;;19.50;98.80;;;;;;5089338;28;19924;-57
2022/08/29 09:41:46;;;;;;;;;;;19.50;99.00;;;;;;5089609;28;19928;-56
2022/08/29 09:44:18;;;;;;;;;;;19.50;98.70;;;;;;5089307;28;19932;-57
2022/08/29 09:46:45;;;;;;;;;;;19.40;98.70;;;;;;5088274;28;19924;-57
2022/08/29 09:49:16;;;;;;;;;;;19.40;98.80;;;;;;5090897;28;20272;-56
2022/08/29 09:51:47;;;;;;;;;;;19.50;98.80;;;;;;5080214;28;19935;-56
2022/08/29 09:54:17;;;;;;;;;;;19.70;98.40;;;;;;5087581;28;19942;-57
2022/08/29 09:56:47;;;;;;;;;;;19.80;98.10;;;;;;5089412;28;20286;-57
2022/08/29 09:59:43;;;;;;;;;;;20.00;97.10;;;;;;5094589;28;19927;-57
2022/08/29 10:02:23;;;;;;;;;;;20.00;97.00;;;;;;5081853;28;19925;-56
2022/08/29 10:04:54;;;;;;;;;;;20.00;97.20;;;;;;5077690;28;19928;-56
2022/08/29 10:07:26;;;;;;;;;;;20.10;97.20;;;;;;5068775;28;20250;-56
2022/08/29 10:09:55;;;;;;;;;;;20.20;97.20;;;;;;5068875;28;19932;-56
2022/08/29 10:12:27;;;;;;;;;;;20.40;97.20;;;;;;5081743;28;19924;-56
2022/08/29 10:14:59;;;;;;;;;;;20.60;96.90;;;;;;5073791;28;19929;-56
2022/08/29 10:20:45;;;;;;;;;;;20.90;96.40;;;;;;5089015;28;19924;-56
2022/08/29 10:23:33;;;;;;;;;;;20.90;96.10;;;;;;5077976;28;19928;-56
2022/08/29 10:26:04;;;;;;;;;;;20.80;96.00;;;;;;5089012;28;19924;-56
2022/08/29 10:28:35;;;;;;;;;;;20.80;96.00;;;;;;5092142;28;19924;-56
2022/08/29 10:31:10;;;;;;;;;;;20.90;96.00;;;;;;5097166;28;19935;-56
2022/08/29 10:33:49;;;;;;;;;;;20.90;95.90;;;;;;5081424;28;19932;-56
2022/08/29 10:36:21;;;;;;;;;;;21.00;95.80;;;;;;5083301;28;19932;-56
2022/08/29 10:38:54;;;;;;;;;;;21.00;95.70;;;;;;5083007;28;19931;-56
2022/08/29 10:41:21;;;;;;;;;;;21.00;95.70;;;;;;5088974;28;19924;-56
2022/08/29 10:44:18;;;;;;;;;;;20.90;95.60;;;;;;5083759;28;19925;-56
2022/08/29 10:47:04;;;;;;;;;;;20.90;95.50;;;;;;5038433;28;20431;-56
2022/08/29 10:49:43;;;;;;;;;;;20.70;95.80;;;;;;5068433;28;19924;-56
2022/08/29 10:52:26;;;;;;;;;;;20.60;95.70;;;;;;5068760;28;19932;-56
2022/08/29 10:55:02;;;;;;;;;;;20.50;95.20;;;;;;5086345;28;19924;-56
2022/08/29 10:57:38;;;;;;;;;;;20.40;95.70;;;;;;5088478;28;20399;-56
2022/08/29 11:00:18;;;;;;;;;;;20.40;95.80;;;;;;5086780;28;19939;-56
2022/08/29 11:02:51;;;;;;;;;;;20.50;96.00;;;;;;5077380;28;19947;-56
2022/08/29 11:05:23;;;;;;;;;;;20.50;95.80;;;;;;5092828;28;20426;-56
2022/08/29 11:08:03;;;;;;;;;;;20.50;95.70;;;;;;5080340;28;20793;-56
2022/08/29 11:10:41;;;;;;;;;;;20.50;96.00;;;;;;5070793;28;20294;-56
2022/08/29 11:13:10;;;;;;;;;;;20.60;95.80;;;;;;5081082;28;19932;-56
2022/08/29 11:15:41;;;;;;;;;;;20.60;95.60;;;;;;5091236;28;19932;-56
2022/08/29 11:18:20;;;;;;;;;;;20.70;95.70;;;;;;5083860;28;20402;-57
2022/08/29 11:20:52;;;;;;;;;;;20.90;95.70;;;;;;5082915;28;19924;-56
2022/08/29 11:23:40;;;;;;;;;;;21.00;95.20;;;;;;5082230;28;19928;-56
2022/08/29 11:26:27;;;;;;;;;;;21.00;95.30;;;;;;5092006;28;19924;-56
2022/08/29 11:29:04;;;;;;;;;;;21.00;95.20;;;;;;5068394;28;19928;-56
2022/08/29 11:31:31;;;;;;;;;;;20.90;95.20;;;;;;5071650;28;19928;-56
2022/08/29 11:34:17;;;;;;;;;;;20.80;95.40;;;;;;5077516;28;19931;-56
2022/08/29 11:36:48;;;;;;;;;;;20.70;95.50;;;;;;5084560;28;19924;-56
2022/08/29 11:39:29;;;;;;;;;;;20.60;95.30;;;;;;5084798;28;19936;-56
2022/08/29 11:42:04;;;;;;;;;;;20.60;95.50;;;;;;5077344;28;20418;-59
2022/08/29 11:44:42;;;;;;;;;;;20.40;95.70;;;;;;5080148;28;19925;-56
2022/08/29 11:47:30;;;;;;;;;;;20.40;95.80;;;;;;5085427;28;19932;-57
2022/08/29 11:50:15;;;;;;;;;;;20.30;95.80;;;;;;5083314;28;19924;-56
2022/08/29 11:52:51;;;;;;;;;;;20.20;96.10;;;;;;5086255;28;19931;-56
2022/08/29 11:55:24;;;;;;;;;;;20.10;96.10;;;;;;5074122;28;19931;-56
2022/08/29 11:57:53;;;;;;;;;;;20.00;96.30;;;;;;5085085;28;19924;-56
2022/08/29 12:00:38;;;;;;;;;;;19.90;96.30;;;;;;5088106;28;20395;-55
2022/08/29 12:03:25;;;;;;;;;;;19.80;96.50;;;;;;5084414;28;19932;-56
2022/08/29 12:05:58;;;;;;;;;;;19.60;96.80;;;;;;5081799;28;19955;-56
2022/08/29 12:08:32;;;;;;;;;;;19.60;97.10;;;;;;5072113;28;21045;-56
2022/08/29 12:11:04;;;;;;;;;;;19.60;97.30;;;;;;5070637;28;19932;-56
2022/08/29 12:13:47;;;;;;;;;;;19.70;97.30;;;;;;5083212;28;20418;-56
2022/08/29 12:16:16;;;;;;;;;;;19.80;97.50;;;;;;5083680;28;19932;-61
2022/08/29 12:18:51;;;;;;;;;;;20.10;97.10;;;;;;5083397;28;19931;-56
2022/08/29 12:21:39;;;;;;;;;;;20.30;96.60;;;;;;5091068;28;19924;-56
2022/08/29 12:24:25;;;;;;;;;;;20.40;96.40;;;;;;5093419;28;20420;-57
2022/08/29 12:26:53;;;;;;;;;;;20.40;96.00;;;;;;5091245;28;19931;-56
2022/08/29 12:29:32;;;;;;;;;;;20.40;96.40;;;;;;5102207;28;19924;-57
2022/08/29 12:32:25;;;;;;;;;;;20.30;96.30;;;;;;5111030;28;19923;-57
2022/08/29 12:35:00;;;;;;;;;;;20.20;96.20;;;;;;5092593;28;19947;-56
2022/08/29 12:37:46;;;;;;;;;;;20.10;96.40;;;;;;5087736;28;19928;-57
2022/08/29 12:40:20;;;;;;;;;;;20.00;96.60;;;;;;5091039;28;19959;-57
2022/08/29 12:42:57;;;;;;;;;;;19.80;97.00;;;;;;5096149;28;19924;-56
2022/08/29 12:45:26;;;;;;;;;;;19.60;97.20;;;;;;5090423;28;19931;-56
2022/08/29 12:47:55;;;;;;;;;;;19.50;97.30;;;;;;5090237;28;19936;-56
2022/08/29 12:50:34;;;;;;;;;;;19.50;97.50;;;;;;5090521;28;20221;-56
2022/08/29 12:53:06;;;;;;;;;;;19.40;97.60;;;;;;5088787;28;20303;-57
2022/08/29 12:55:42;;;;;;;;;;;19.40;97.70;;;;;;5090333;28;19935;-57
2022/08/29 12:58:11;;;;;;;;;;;19.40;98.00;;;;;;5091423;28;19940;-56
2022/08/29 13:00:50;;;;;;;;;;;19.50;98.10;;;;;;5108873;28;19931;-56
2022/08/29 13:03:18;;;;;;;;;;;19.50;98.20;;;;;;5102266;27;20379;-57
2022/08/29 13:05:46;;;;;;;;;;;19.70;98.10;;;;;;5086909;28;19928;-57
2022/08/29 13:08:24;;;;;;;;;;;19.80;98.00;;;;;;5088438;28;20402;-57
2022/08/29 13:10:58;;;;;;;;;;;19.80;97.70;;;;;;5088913;28;19931;-56
2022/08/29 13:13:26;;;;;;;;;;;19.80;97.50;;;;;;5095103;28;20366;-56
2022/08/29 13:15:56;;;;;;;;;;;19.80;97.50;;;;;;5089850;28;19924;-56
2022/08/29 13:18:24;;;;;;;;;;;19.80;97.70;;;;;;5088803;28;19924;-56
2022/08/29 13:21:06;;;;;;;;;;;19.80;97.80;;;;;;5089889;28;20294;-56
2022/08/29 13:23:35;;;;;;;;;;;19.70;98.00;;;;;;5093805;28;19931;-57
2022/08/29 13:26:17;;;;;;;;;;;19.70;98.10;;;;;;5088141;28;19924;-57
2022/08/29 13:28:55;;;;;;;;;;;19.70;98.10;;;;;;5095847;28;19931;-56
2022/08/29 13:31:23;;;;;;;;;;;19.70;98.20;;;;;;5109928;28;19923;-57
2022/08/29 13:33:52;;;;;;;;;;;19.70;98.50;;;;;;5104022;28;19931;-57
2022/08/29 13:36:25;;;;;;;;;;;19.70;98.40;;;;;;5109811;28;20593;-57
2022/08/29 13:39:12;;;;;;;;;;;19.80;98.50;;;;;;5079201;28;20395;-56
2022/08/29 13:41:40;;;;;;;;;;;19.90;98.40;;;;;;5069640;28;19928;-56
2022/08/29 13:44:18;;;;;;;;;;;20.00;98.60;;;;;;5091178;28;19930;-56
2022/08/29 13:46:46;;;;;;;;;;;20.10;98.50;;;;;;5089478;28;19931;-57
2022/08/29 13:49:33;;;;;;;;;;;20.30;98.20;;;;;;5106322;28;19928;-56
2022/08/29 13:52:01;;;;;;;;;;;20.60;98.00;;;;;;5108412;28;19928;-57
2022/08/29 13:54:33;;;;;;;;;;;20.80;98.00;;;;;;5084393;28;19943;-56
2022/08/29 13:57:01;;;;;;;;;;;21.20;97.50;;;;;;5089177;28;19940;-57
2022/08/29 13:59:35;;;;;;;;;;;21.40;96.40;;;;;;5102455;28;19924;-57
2022/08/29 14:02:02;;;;;;;;;;;21.70;96.00;;;;;;5109417;28;19924;-56
2022/08/29 14:04:35;;;;;;;;;;;21.90;95.70;;;;;;5094308;28;20292;-57
2022/08/29 14:07:12;;;;;;;;;;;22.00;95.20;;;;;;5087243;28;19931;-56
2022/08/29 14:09:40;;;;;;;;;;;22.00;95.20;;;;;;5065919;28;19924;-57
2022/08/29 14:12:09;;;;;;;;;;;22.00;95.00;;;;;;5067267;28;19947;-57
2022/08/29 14:14:36;;;;;;;;;;;22.00;95.00;;;;;;5083848;28;19924;-56
2022/08/29 14:17:04;;;;;;;;;;;21.90;94.80;;;;;;5088939;28;19950;-57
2022/08/29 14:19:31;;;;;;;;;;;21.90;95.20;;;;;;5087551;28;19931;-56
2022/08/29 14:21:59;;;;;;;;;;;21.80;95.20;;;;;;5089168;28;19924;-57
2022/08/29 14:24:29;;;;;;;;;;;21.70;95.50;;;;;;5088406;28;19931;-57
2022/08/29 14:26:57;;;;;;;;;;;21.60;95.30;;;;;;5088954;28;19931;-57
2022/08/29 14:29:28;;;;;;;;;;;21.60;95.30;;;;;;5101091;28;19931;-56
2022/08/29 14:31:57;;;;;;;;;;;21.50;95.50;;;;;;5108802;28;20389;-57
2022/08/29 14:34:25;;;;;;;;;;;21.50;95.40;;;;;;5094705;28;19924;-57
2022/08/29 14:36:59;;;;;;;;;;;21.40;95.40;;;;;;5088533;28;19931;-57
2022/08/29 14:39:29;;;;;;;;;;;21.30;95.60;;;;;;5072855;28;20410;-57
2022/08/29 14:41:57;;;;;;;;;;;21.30;95.90;;;;;;5068452;28;20126;-56
2022/08/29 14:44:24;;;;;;;;;;;21.30;95.90;;;;;;5092458;28;19924;-57